Terminal Aerodrome Forecast
Issued by NWS

Home | Current Version | Previous Version | Text Only | Print | Product List | Glossary On
Versions: 1 2 3 4 5 6 7 8 9 10 11 12 13 14 15
000
FTUS45 KRIW 241100
TAFCPR
TAF
KCPR 241124Z 2412/2512 25010KT P6SM SCT030 BKN070
      TEMPO 2412/2414 BKN030
     FM241700 27015G25KT P6SM SCT060
     FM250100 29009KT P6SM FEW070
     FM250200 01010KT P6SM FEW080
     FM250800 06006KT P6SM FEW030=

USA.gov is the U.S. government's official web portal to all federal, state and local government web resources and services.